Time;durP1;ratioP1;P1;durP2;ratioP2;P2;SDS_P1;SDS_P2;PMS_P1;PMS_P2;Temp;Humidity;BMP_temperature;BMP_pressure;BME280_temperature;BME280_humidity;BME280_pressure;Samples;Min_cycle;Max_cycle;Signal;HPM_P1;HPM_P2
2021/10/02 00:46:41;;;;;;;5.25;4.88;;;;;;;4.79;84.19;101937.09;6364290;22;20029;-74
2021/10/02 00:49:26;;;;;;;3.95;3.75;;;;;;;4.77;84.65;101932.78;6367511;22;20033;-73
2021/10/02 00:52:12;;;;;;;4.47;4.00;;;;;;;4.81;83.90;101939.72;6323007;22;20057;-72
2021/10/02 00:54:57;;;;;;;5.50;5.20;;;;;;;4.82;83.97;101939.69;6344292;22;20033;-74
2021/10/02 00:57:41;;;;;;;4.88;4.50;;;;;;;4.83;83.79;101938.84;6368053;22;20052;-73
2021/10/02 01:00:26;;;;;;;3.03;2.92;;;;;;;4.82;83.67;101944.00;6367597;22;20377;-73
2021/10/02 01:03:38;;;;;;;5.93;5.63;;;;;;;4.77;83.51;101933.66;6368179;22;20067;-72
2021/10/02 01:06:48;;;;;;;4.35;4.10;;;;;;;4.79;84.23;101951.75;6367371;22;20097;-72
2021/10/02 01:09:43;;;;;;;4.65;3.10;;;;;;;4.77;84.48;101937.97;6345139;22;20052;-73
2021/10/02 01:12:48;;;;;;;3.88;2.97;;;;;;;4.77;85.21;101938.84;6367619;22;20032;-73
2021/10/02 01:15:36;;;;;;;4.18;3.97;;;;;;;4.77;84.11;101943.13;6360416;22;20050;-73
2021/10/02 01:18:28;;;;;;;4.43;4.13;;;;;;;4.73;83.47;101937.97;6367426;22;20067;-73
2021/10/02 01:21:34;;;;;;;3.65;3.35;;;;;;;4.77;83.84;101938.84;6344196;22;20029;-74
2021/10/02 01:24:44;;;;;;;16.27;5.80;;;;;;;4.79;83.39;101934.50;6367602;22;20408;-73
2021/10/02 01:27:49;;;;;;;5.22;4.88;;;;;;;4.81;83.08;101930.19;6323655;22;20489;-73
2021/10/02 01:49:15;;;;;;;3.45;3.20;;;;;;;4.73;83.80;101931.91;6367561;22;20375;-71
2021/10/02 01:51:59;;;;;;;5.28;4.75;;;;;;;4.73;83.04;101931.91;6343941;22;20034;-71
2021/10/02 01:54:44;;;;;;;5.72;4.97;;;;;;;4.71;83.12;101933.66;6367299;22;20070;-73
2021/10/02 01:57:31;;;;;;;4.30;3.90;;;;;;;4.68;83.43;101934.47;6343472;22;20435;-74
2021/10/02 02:00:16;;;;;;;3.75;3.55;;;;;;;4.72;83.53;101927.59;6344091;22;20028;-74
2021/10/02 02:03:01;;;;;;;4.00;3.80;;;;;;;4.69;83.74;101922.41;6343682;22;20049;-74
2021/10/02 02:05:46;;;;;;;4.03;3.50;;;;;;;4.70;83.01;101926.75;6321144;22;20666;-73
2021/10/02 02:08:30;;;;;;;3.47;3.33;;;;;;;4.69;83.22;101932.75;6343331;22;20048;-74
2021/10/02 02:11:15;;;;;;;3.30;3.03;;;;;;;4.63;83.23;101923.28;6367070;22;20033;-72
2021/10/02 02:14:00;;;;;;;5.40;4.90;;;;;;;4.63;83.93;101927.56;6367356;22;20029;-73
2021/10/02 02:16:45;;;;;;;3.83;3.13;;;;;;;4.68;83.82;101936.19;6321299;22;20065;-73
2021/10/02 02:19:30;;;;;;;8.30;6.40;;;;;;;4.64;83.79;101931.91;6343270;22;20500;-73
2021/10/02 02:22:14;;;;;;;5.35;4.82;;;;;;;4.59;83.66;101938.75;6343791;22;20067;-74
2021/10/02 02:24:58;;;;;;;5.30;4.93;;;;;;;4.56;84.04;101934.47;6343723;22;20033;-72
2021/10/02 02:27:43;;;;;;;9.27;3.78;;;;;;;4.51;83.88;101935.31;6366954;22;20075;-73
2021/10/02 02:30:28;;;;;;;5.18;4.75;;;;;;;4.56;83.96;101938.75;6366521;22;20033;-73
2021/10/02 02:33:14;;;;;;;4.30;4.00;;;;;;;4.56;83.35;101939.63;6343425;22;20113;-73
2021/10/02 02:35:59;;;;;;;2.78;2.65;;;;;;;4.58;84.00;101942.25;6321211;22;20044;-73
2021/10/02 02:38:43;;;;;;;4.55;4.03;;;;;;;4.59;83.39;101937.06;6367039;22;20541;-73
2021/10/02 02:41:28;;;;;;;3.72;3.38;;;;;;;4.58;83.02;101937.91;6366607;22;20067;-73
2021/10/02 02:44:12;;;;;;;4.10;3.33;;;;;;;4.56;84.14;101943.94;6367086;22;20072;-73
2021/10/02 02:47:02;;;;;;;11.50;3.67;;;;;;;4.55;83.66;101943.06;6343183;22;20076;-72
2021/10/02 02:49:51;;;;;;;3.65;3.33;;;;;;;4.50;84.26;101933.56;6343060;22;20048;-73
2021/10/02 02:52:46;;;;;;;3.80;3.58;;;;;;;4.51;83.75;101935.31;6343557;22;20029;-72
2021/10/02 02:55:33;;;;;;;4.68;4.45;;;;;;;4.57;84.38;101945.66;6342780;22;20102;-73
2021/10/02 02:58:18;;;;;;;5.10;3.70;;;;;;;4.56;84.18;101941.34;6320997;22;20029;-74
2021/10/02 03:01:02;;;;;;;3.60;3.40;;;;;;;4.55;83.97;101937.03;6342947;22;20567;-73
2021/10/02 03:03:49;;;;;;;20.98;4.53;;;;;;;4.59;83.91;101941.34;6342931;22;20123;-74
2021/10/02 03:06:34;;;;;;;8.93;3.80;;;;;;;4.64;83.45;101943.13;6343209;22;20350;-73
2021/10/02 03:09:19;;;;;;;3.85;3.65;;;;;;;4.60;84.41;101941.38;6369463;22;20129;-73
2021/10/02 03:12:03;;;;;;;5.63;5.32;;;;;;;4.57;84.00;101941.38;6347124;22;20071;-74
2021/10/02 03:14:48;;;;;;;3.33;3.20;;;;;;;4.59;83.96;101944.81;6321160;22;20020;-71
2021/10/02 03:17:32;;;;;;;3.42;3.22;;;;;;;4.56;84.06;101951.69;6342853;22;20453;-72
2021/10/02 03:20:17;;;;;;;5.18;4.50;;;;;;;4.52;84.47;101944.78;6342688;22;20083;-71
2021/10/02 03:23:01;;;;;;;2.80;2.70;;;;;;;4.50;84.14;101939.63;6321092;22;20051;-72
2021/10/02 03:25:46;;;;;;;4.22;4.03;;;;;;;4.51;84.79;101936.19;6366084;22;20063;-72
2021/10/02 03:28:31;;;;;;;4.47;3.70;;;;;;;4.49;83.82;101929.25;6365497;22;20087;-72
2021/10/02 03:31:16;;;;;;;3.35;3.15;;;;;;;4.45;84.83;101924.94;6320846;22;20029;-72
2021/10/02 03:34:01;;;;;;;3.38;3.17;;;;;;;4.39;84.79;101924.91;6366603;22;20079;-72
2021/10/02 03:36:46;;;;;;;4.55;3.97;;;;;;;4.44;84.63;101928.38;6366045;22;20364;-73
2021/10/02 03:39:30;;;;;;;4.20;3.90;;;;;;;4.44;84.90;101930.97;6365874;22;20045;-74
2021/10/02 03:42:17;;;;;;;5.78;5.22;;;;;;;4.41;84.84;101923.19;6342780;22;20128;-72
2021/10/02 03:45:02;;;;;;;3.55;3.42;;;;;;;4.44;84.71;101931.84;6342734;22;20064;-72
2021/10/02 03:47:46;;;;;;;2.83;2.72;;;;;;;4.50;84.62;101934.44;6365903;22;20048;-73
2021/10/02 03:50:32;;;;;;;4.00;3.80;;;;;;;4.51;83.86;101940.47;6342150;22;20373;-72
2021/10/02 03:53:16;;;;;;;6.47;3.58;;;;;;;4.49;84.54;101935.28;6366241;22;20078;-72
2021/10/02 03:56:01;;;;;;;5.60;4.85;;;;;;;4.57;84.41;101941.38;6365961;22;20029;-72
2021/10/02 03:58:45;;;;;;;5.75;5.13;;;;;;;4.58;83.92;101937.06;6365581;22;20495;-72
2021/10/02 04:01:30;;;;;;;3.83;3.63;;;;;;;4.60;84.31;101940.50;6365633;22;20025;-72
2021/10/02 04:04:15;;;;;;;6.40;5.45;;;;;;;4.59;83.83;101939.63;6366074;22;20025;-71
2021/10/02 04:06:59;;;;;;;10.60;3.22;;;;;;;4.58;83.76;101940.47;6366049;22;20144;-73
2021/10/02 04:09:44;;;;;;;4.65;4.25;;;;;;;4.56;84.27;101942.22;6365669;22;20029;-73
2021/10/02 04:12:28;;;;;;;4.60;4.20;;;;;;;4.62;83.90;101936.19;6343131;22;20172;-73
2021/10/02 04:15:13;;;;;;;6.47;4.22;;;;;;;4.62;83.25;101942.22;6372609;22;20381;-73
2021/10/02 04:17:57;;;;;;;4.18;3.92;;;;;;;4.70;83.46;101944.84;6372532;22;20492;-74
2021/10/02 04:20:42;;;;;;;3.72;3.58;;;;;;;4.72;82.63;101941.41;6343382;22;20117;-73
2021/10/02 04:23:27;;;;;;;3.47;3.28;;;;;;;4.75;82.59;101935.34;6366556;22;20074;-74
2021/10/02 04:26:11;;;;;;;4.00;3.70;;;;;;;4.77;83.04;101935.38;6343154;22;20099;-73
2021/10/02 04:28:56;;;;;;;2.58;2.47;;;;;;;4.82;82.60;101937.09;6342874;22;20047;-72
2021/10/02 04:31:40;;;;;;;3.70;3.58;;;;;;;4.90;82.86;101940.59;6342070;22;20152;-73
2021/10/02 04:34:25;;;;;;;3.38;3.22;;;;;;;4.83;82.06;101925.91;6365595;22;20118;-73
2021/10/02 04:37:09;;;;;;;3.42;3.22;;;;;;;4.95;82.46;101938.00;6365892;22;20030;-73
2021/10/02 04:39:54;;;;;;;6.05;5.63;;;;;;;5.03;81.50;101931.13;6342032;22;20090;-74
2021/10/02 04:42:38;;;;;;;5.38;5.10;;;;;;;5.07;81.48;101931.09;6319795;22;20083;-73
2021/10/02 04:45:23;;;;;;;4.97;4.57;;;;;;;5.01;81.76;101936.28;6365679;22;20825;-72
2021/10/02 04:48:07;;;;;;;8.02;6.72;;;;;;;5.09;81.64;101937.16;6342183;22;20029;-73
2021/10/02 04:50:52;;;;;;;7.50;6.32;;;;;;;5.14;81.36;101944.91;6365413;22;20082;-73
2021/10/02 04:53:36;;;;;;;4.57;4.38;;;;;;;5.24;80.69;101942.34;6365544;22;20472;-72
2021/10/02 04:56:21;;;;;;;4.18;3.67;;;;;;;5.21;81.18;101937.16;6320061;22;20095;-72
2021/10/02 04:59:05;;;;;;;3.42;3.28;;;;;;;5.32;79.97;101938.91;6365698;22;20033;-73
2021/10/02 05:01:50;;;;;;;4.25;3.75;;;;;;;5.42;79.91;101946.66;6365525;22;20125;-73
2021/10/02 05:04:34;;;;;;;4.72;4.40;;;;;;;5.33;80.69;101946.69;6365521;22;20028;-73
2021/10/02 05:07:19;;;;;;;3.42;2.80;;;;;;;5.45;81.08;101948.38;6342200;22;20033;-73
2021/10/02 05:10:03;;;;;;;5.07;4.57;;;;;;;5.54;80.03;101954.44;6365615;22;20029;-74
2021/10/02 05:12:48;;;;;;;4.55;4.10;;;;;;;5.42;80.32;101950.97;6320058;22;20051;-73
2021/10/02 05:15:33;;;;;;;5.82;4.15;;;;;;;5.33;80.79;101956.16;6319748;22;20029;-73
2021/10/02 05:18:17;;;;;;;6.72;5.82;;;;;;;5.76;79.70;101947.47;6342145;22;20068;-74
2021/10/02 05:21:01;;;;;;;7.97;6.55;;;;;;;5.93;78.42;101945.75;6319469;22;20075;-72
2021/10/02 05:23:46;;;;;;;5.03;4.57;;;;;;;5.96;78.26;101950.94;6341482;22;20029;-74
2021/10/02 05:26:31;;;;;;;6.00;5.60;;;;;;;5.86;78.95;101966.53;6364811;22;20029;-75
2021/10/02 05:29:15;;;;;;;4.25;3.85;;;;;;;6.12;77.59;101962.13;6367315;22;20045;-74
2021/10/02 05:32:20;;;;;;;7.75;5.07;;;;;;;5.78;79.45;101954.41;6367260;22;20557;-75
2021/10/02 05:35:05;;;;;;;3.38;3.08;;;;;;;5.74;80.13;101959.59;6367000;22;20564;-74
2021/10/02 05:37:50;;;;;;;4.68;4.28;;;;;;;5.84;79.39;101961.31;6367292;22;20469;-77
2021/10/02 05:40:34;;;;;;;3.35;3.17;;;;;;;5.93;79.26;101950.94;6367808;22;20033;-74
2021/10/02 05:43:18;;;;;;;6.35;4.07;;;;;;;6.05;78.76;101950.91;6367565;22;20029;-74
2021/10/02 05:46:03;;;;;;;5.35;4.82;;;;;;;6.20;78.74;101955.22;6343891;22;20075;-74
2021/10/02 05:48:48;;;;;;;31.00;17.00;;;;;;;6.07;79.02;101958.69;6366845;22;20078;-73
2021/10/02 05:51:32;;;;;;;11.00;3.97;;;;;;;6.26;78.43;101956.03;6321440;22;20028;-73
2021/10/02 05:54:17;;;;;;;4.22;3.97;;;;;;;6.57;77.45;101958.53;6367287;22;20100;-72
2021/10/02 05:57:02;;;;;;;4.32;4.07;;;;;;;6.32;77.93;101957.75;6343452;22;20065;-72
2021/10/02 05:59:46;;;;;;;3.55;3.25;;;;;;;6.54;77.20;101959.41;6366842;22;20075;-73
2021/10/02 06:02:31;;;;;;;3.50;3.30;;;;;;;6.47;76.77;101954.25;6366982;22;20110;-72
2021/10/02 06:05:15;;;;;;;8.77;3.95;;;;;;;6.79;75.71;101954.94;6343762;22;20757;-72
2021/10/02 06:08:00;;;;;;;6.72;4.32;;;;;;;6.73;75.77;101954.97;6366734;22;20025;-73
2021/10/02 06:10:44;;;;;;;4.65;4.25;;;;;;;6.87;75.44;101960.97;6366681;22;20032;-73
2021/10/02 06:13:29;;;;;;;4.15;3.88;;;;;;;6.90;75.30;101953.16;6337075;22;20168;-73
2021/10/02 06:16:17;;;;;;;2.50;2.33;;;;;;;6.89;74.91;101948.84;6367154;22;20075;-72
2021/10/02 06:19:01;;;;;;;3.97;3.67;;;;;;;6.86;74.93;101963.56;6365682;22;20071;-81
2021/10/02 06:21:45;;;;;;;4.97;4.63;;;;;;;6.87;74.60;101960.97;6365645;22;20120;-78
2021/10/02 06:24:30;;;;;;;5.47;4.97;;;;;;;7.09;74.77;101952.16;6320290;22;20087;-76
2021/10/02 06:27:15;;;;;;;5.97;4.63;;;;;;;6.83;75.00;101956.66;6364884;22;20075;-75
2021/10/02 06:30:00;;;;;;;6.43;4.57;;;;;;;7.08;74.10;101953.03;6364726;22;20029;-76
2021/10/02 06:32:44;;;;;;;2.83;2.70;;;;;;;7.23;73.95;101959.88;6319934;22;20030;-75
2021/10/02 06:35:29;;;;;;;5.70;3.85;;;;;;;7.73;72.40;101946.44;6365837;22;20067;-76
2021/10/02 06:38:15;;;;;;;6.15;4.47;;;;;;;7.68;69.78;101953.41;6366194;22;20025;-76
2021/10/02 06:41:00;;;;;;;3.72;3.42;;;;;;;7.55;69.60;101954.41;6365808;22;20087;-75
2021/10/02 06:43:44;;;;;;;2.33;2.22;;;;;;;7.37;70.55;101958.00;6342540;22;20106;-78
2021/10/02 06:46:29;;;;;;;4.10;3.72;;;;;;;7.93;67.87;101946.22;6365957;22;20369;-77
2021/10/02 06:49:13;;;;;;;5.65;5.15;;;;;;;7.92;67.21;101947.97;6342371;22;20051;-73
2021/10/02 06:51:58;;;;;;;15.65;3.15;;;;;;;8.06;66.82;101950.41;6365674;22;20026;-74
2021/10/02 06:54:42;;;;;;;4.35;3.38;;;;;;;7.81;68.09;101955.03;6342357;22;20026;-73
2021/10/02 06:57:27;;;;;;;4.65;4.28;;;;;;;7.95;67.01;101958.34;6365837;22;20061;-76
2021/10/02 07:00:12;;;;;;;7.50;5.75;;;;;;;8.05;66.77;101952.16;6320052;22;20067;-76
2021/10/02 07:02:56;;;;;;;4.30;4.10;;;;;;;8.19;67.38;101957.22;6341611;22;20052;-77
2021/10/02 07:05:41;;;;;;;3.83;3.60;;;;;;;8.24;66.83;101953.69;6364826;22;20029;-78
2021/10/02 07:08:25;;;;;;;3.22;3.13;;;;;;;8.16;67.29;101958.13;6320098;22;20041;-78
2021/10/02 07:11:10;;;;;;;3.20;3.10;;;;;;;8.19;67.06;101952.88;6364493;22;20048;-76
2021/10/02 07:13:54;;;;;;;3.60;3.40;;;;;;;8.22;66.91;101958.03;6342042;22;20025;-77
2021/10/02 07:16:40;;;;;;;4.05;3.83;;;;;;;8.27;66.52;101950.19;6341795;22;20033;-76
2021/10/02 07:19:24;;;;;;;3.80;3.58;;;;;;;8.41;66.07;101957.88;6344566;22;20057;-78
2021/10/02 07:22:09;;;;;;;2.78;2.67;;;;;;;8.52;65.61;101953.38;6346962;22;20083;-77
2021/10/02 07:24:53;;;;;;;4.32;4.03;;;;;;;7.92;67.56;101952.31;6368046;22;20024;-75
2021/10/02 07:27:38;;;;;;;2.72;2.63;;;;;;;7.90;67.94;101936.72;6366300;22;20045;-77
2021/10/02 07:30:23;;;;;;;3.42;3.15;;;;;;;8.34;67.03;101957.91;6343462;22;20369;-77
2021/10/02 07:33:08;;;;;;;3.03;2.85;;;;;;;8.31;67.21;101959.72;6342933;22;20040;-76
2021/10/02 07:35:52;;;;;;;37.40;3.97;;;;;;;8.60;65.74;101949.81;6367605;22;20021;-80
2021/10/02 07:38:37;;;;;;;2.83;2.67;;;;;;;8.53;64.75;101945.56;6350094;22;20064;-81
2021/10/02 07:41:22;;;;;;;5.47;4.60;;;;;;;8.83;63.96;101957.31;6380363;22;20025;-81
2021/10/02 07:44:13;;;;;;;3.63;3.42;;;;;;;8.29;64.97;101944.13;6359010;22;20029;-82
2021/10/02 07:46:57;;;;;;;2.97;2.88;;;;;;;8.49;65.29;101956.88;6327518;22;20045;-80
2021/10/02 07:49:42;;;;;;;3.67;3.38;;;;;;;8.66;64.51;101948.88;6367204;22;20079;-79
2021/10/02 07:52:27;;;;;;;3.92;3.70;;;;;;;8.66;64.32;101954.06;6320308;22;20500;-77
2021/10/02 07:55:13;;;;;;;2.92;2.55;;;;;;;8.40;65.30;101953.53;6320199;22;20025;-79
2021/10/02 07:57:57;;;;;;;4.10;3.80;;;;;;;8.55;64.26;101950.72;6341606;22;20025;-76
2021/10/02 08:00:47;;;;;;;3.40;3.22;;;;;;;8.53;64.28;101953.38;6374231;22;20044;-82
2021/10/02 08:03:31;;;;;;;4.65;3.10;;;;;;;8.57;64.26;101954.19;6344328;22;20051;-80
2021/10/02 08:06:16;;;;;;;5.13;4.82;;;;;;;8.73;64.33;101945.31;6319224;22;20032;-75
2021/10/02 08:09:01;;;;;;;3.70;3.53;;;;;;;8.83;63.25;101952.09;6363987;22;20069;-74
2021/10/02 08:11:46;;;;;;;4.22;3.83;;;;;;;8.81;63.39;101951.25;6364596;22;20069;-75
2021/10/02 08:14:30;;;;;;;4.13;3.83;;;;;;;8.76;63.53;101956.53;6358565;22;20029;-74
2021/10/02 08:17:15;;;;;;;5.20;4.65;;;;;;;8.86;63.05;101952.06;6339776;22;20095;-76
2021/10/02 08:20:00;;;;;;;3.25;3.15;;;;;;;8.91;63.21;101952.84;6295764;22;20082;-75
2021/10/02 08:22:54;;;;;;;3.47;3.28;;;;;;;8.76;64.12;101955.69;6358479;22;20024;-77
2021/10/02 08:25:48;;;;;;;4.38;3.97;;;;;;;9.08;62.31;101947.38;6295171;22;20401;-76
2021/10/02 08:28:54;;;;;;;3.15;2.95;;;;;;;8.97;63.78;101949.28;6340730;22;20029;-79
2021/10/02 08:32:04;;;;;;;5.07;4.72;;;;;;;8.88;63.07;101948.53;6338782;22;20025;-79
2021/10/02 08:35:21;;;;;;;4.27;4.07;;;;;;;9.14;62.07;101942.94;6364328;22;20530;-77
2021/10/02 08:38:28;;;;;;;4.65;4.07;;;;;;;9.19;62.69;101950.72;6342062;22;20323;-78
2021/10/02 08:41:20;;;;;;;4.25;3.80;;;;;;;9.07;62.15;101946.53;6365460;22;20074;-76
2021/10/02 08:44:08;;;;;;;3.38;3.22;;;;;;;9.29;62.29;101947.06;6340029;22;20071;-77
2021/10/02 08:46:53;;;;;;;3.97;3.78;;;;;;;8.97;62.87;101942.31;6340792;22;20033;-77
2021/10/02 08:50:44;;;;;;;3.92;3.25;;;;;;;9.10;62.88;101941.25;6332351;22;20033;-78
2021/10/02 10:02:47;;;;;;;3.33;3.20;;;;;;;9.15;58.93;101929.03;6319216;22;20041;-76
2021/10/02 10:05:58;;;;;;;2.50;2.40;;;;;;;9.16;59.47;101928.13;6318397;22;20030;-78
2021/10/02 10:08:43;;;;;;;2.92;2.55;;;;;;;8.97;60.24;101924.09;6318831;22;20524;-76
2021/10/02 10:11:45;;;;;;;5.32;4.93;;;;;;;8.93;59.69;101938.06;6319287;22;20492;-77
2021/10/02 10:14:30;;;;;;;3.05;2.85;;;;;;;9.12;59.05;101929.09;6319098;22;20049;-75
2021/10/02 10:17:15;;;;;;;4.65;2.97;;;;;;;9.40;58.28;101925.16;6316585;22;20034;-76
2021/10/02 10:20:00;;;;;;;3.38;3.17;;;;;;;9.20;59.12;101921.13;6315956;22;20038;-78
2021/10/02 10:22:55;;;;;;;3.88;3.58;;;;;;;9.05;60.05;101913.56;6318325;22;20033;-75
2021/10/02 10:25:47;;;;;;;2.20;2.10;;;;;;;9.13;58.78;101925.56;6316923;22;20050;-77
2021/10/02 10:28:34;;;;;;;6.00;3.67;;;;;;;9.29;58.61;101921.00;6317126;22;20026;-77
2021/10/02 10:31:25;;;;;;;3.88;2.95;;;;;;;9.02;59.93;101911.00;6316956;22;20113;-77
2021/10/02 10:34:09;;;;;;;4.38;3.40;;;;;;;9.23;59.59;101906.31;6314211;22;20046;-78
2021/10/02 10:36:54;;;;;;;2.90;2.80;;;;;;;9.36;58.75;101913.03;6312993;22;20053;-77
2021/10/02 10:39:39;;;;;;;2.33;2.22;;;;;;;8.87;59.36;101902.53;6316448;22;20482;-76
2021/10/02 10:42:27;;;;;;;5.93;2.38;;;;;;;9.03;59.51;101871.88;6318528;22;20042;-75
2021/10/02 10:45:12;;;;;;;2.00;2.00;;;;;;;9.57;57.42;101897.91;6319184;22;20087;-74
2021/10/02 10:47:57;;;;;;;3.17;3.00;;;;;;;9.14;58.90;101901.25;6294516;22;20088;-76
2021/10/02 10:50:44;;;;;;;3.15;2.58;;;;;;;9.43;58.31;101899.03;6316294;22;20089;-75
2021/10/02 10:53:41;;;;;;;4.38;3.22;;;;;;;9.41;58.28;101900.81;6320664;22;20164;-75
2021/10/02 10:56:42;;;;;;;3.38;3.17;;;;;;;9.21;59.30;101895.06;6321996;22;20515;-75
2021/10/02 10:59:27;;;;;;;3.67;3.53;;;;;;;9.71;57.92;101903.75;6313585;22;20049;-77
2021/10/02 11:02:59;;;;;;;2.78;2.63;;;;;;;9.98;56.64;101898.00;6313183;22;20080;-74
2021/10/02 11:05:47;;;;;;;2.75;2.55;;;;;;;9.89;57.56;101903.41;6318422;22;20026;-76
2021/10/02 11:09:05;;;;;;;2.85;2.75;;;;;;;9.59;58.23;101901.34;6321033;22;20041;-75
2021/10/02 11:11:51;;;;;;;2.30;2.22;;;;;;;9.75;57.70;101900.22;6319868;22;20038;-76
2021/10/02 11:14:50;;;;;;;2.38;2.30;;;;;;;9.83;57.18;101903.50;6315077;22;20060;-73
2021/10/02 11:17:39;;;;;;;3.38;2.38;;;;;;;9.82;58.21;101900.03;6302684;22;20081;-74
2021/10/02 11:20:34;;;;;;;2.90;2.70;;;;;;;9.27;58.54;101908.00;6304358;22;20405;-72
2021/10/02 11:23:55;;;;;;;2.30;2.20;;;;;;;9.35;59.36;101893.09;6302527;22;20026;-73
2021/10/02 11:26:40;;;;;;;2.13;2.03;;;;;;;9.25;58.29;101893.28;6302164;22;20473;-73
2021/10/02 11:29:29;;;;;;;2.97;2.78;;;;;;;9.32;58.62;101894.91;6302149;22;20343;-74
2021/10/02 11:32:17;;;;;;;5.55;2.83;;;;;;;9.53;58.50;101894.50;6302492;22;20080;-72
2021/10/02 11:35:20;;;;;;;2.33;2.22;;;;;;;9.49;58.93;101897.22;6300981;22;20026;-73
2021/10/02 11:38:07;;;;;;;4.55;3.65;;;;;;;9.28;58.99;101888.88;6300177;22;20029;-73
2021/10/02 11:40:51;;;;;;;2.90;2.70;;;;;;;9.43;58.54;101888.59;6300786;22;20034;-76
2021/10/02 11:43:40;;;;;;;2.45;2.35;;;;;;;9.81;57.29;101890.53;6304521;22;20046;-73
2021/10/02 11:46:25;;;;;;;2.65;2.55;;;;;;;9.64;57.97;101881.28;6257824;22;20030;-74
2021/10/02 11:49:17;;;;;;;3.35;3.05;;;;;;;9.59;58.77;101893.53;6304112;22;20073;-73
2021/10/02 11:52:11;;;;;;;14.13;2.40;;;;;;;9.69;58.24;101879.44;6302142;22;20026;-72
2021/10/02 11:55:23;;;;;;;3.50;3.20;;;;;;;9.72;57.09;101880.22;6279150;22;20026;-74
2021/10/02 11:58:10;;;;;;;2.42;2.33;;;;;;;9.52;57.01;101876.28;6300950;22;20091;-73
2021/10/02 12:00:57;;;;;;;1.67;1.67;;;;;;;9.88;55.96;101867.78;6311663;22;20045;-74
2021/10/02 12:03:42;;;;;;;5.65;2.60;;;;;;;9.71;56.68;101870.72;6333114;22;20029;-73
2021/10/02 12:06:27;;;;;;;3.15;2.95;;;;;;;9.84;56.43;101868.72;6310726;22;20036;-73
2021/10/02 12:09:12;;;;;;;4.15;3.60;;;;;;;9.65;57.75;101869.97;6311633;22;20034;-74
2021/10/02 12:11:57;;;;;;;2.13;2.03;;;;;;;9.51;57.93;101871.97;6288544;22;20026;-73
2021/10/02 12:14:41;;;;;;;3.40;3.17;;;;;;;9.43;57.59;101870.34;6334004;22;20251;-74
2021/10/02 12:17:26;;;;;;;3.15;2.47;;;;;;;9.63;57.79;101869.13;6311045;22;20481;-72
2021/10/02 12:20:10;;;;;;;3.17;2.97;;;;;;;9.54;57.79;101864.94;6309860;22;20412;-73
2021/10/02 12:23:13;;;;;;;4.03;2.90;;;;;;;9.60;58.11;101877.88;6333352;22;20071;-72
2021/10/02 12:26:02;;;;;;;3.80;3.53;;;;;;;9.95;57.06;101851.94;6310053;22;20095;-72
2021/10/02 12:28:47;;;;;;;3.13;2.70;;;;;;;10.14;56.50;101860.31;6333262;22;20057;-72
2021/10/02 12:32:02;;;;;;;4.82;3.25;;;;;;;10.19;56.61;101854.97;6309916;22;20068;-73
2021/10/02 12:34:51;;;;;;;3.83;2.05;;;;;;;9.77;57.33;101867.97;6310720;22;20026;-75
2021/10/02 12:37:36;;;;;;;4.68;3.88;;;;;;;9.51;58.40;101858.91;6334573;22;20022;-75
2021/10/02 12:40:20;;;;;;;2.85;2.67;;;;;;;9.28;59.17;101856.72;6335526;22;20061;-75
2021/10/02 12:43:05;;;;;;;4.45;3.25;;;;;;;9.40;59.40;101857.38;6309613;22;20029;-74
2021/10/02 12:45:49;;;;;;;3.08;2.85;;;;;;;9.53;58.04;101857.13;6307714;22;20061;-76
2021/10/02 12:48:36;;;;;;;2.97;2.88;;;;;;;9.52;58.70;101855.44;6331662;22;20034;-76
2021/10/02 12:51:21;;;;;;;4.10;2.92;;;;;;;9.54;57.98;101849.28;6308229;22;20160;-75
2021/10/02 12:54:06;;;;;;;4.53;4.22;;;;;;;9.30;58.63;101847.97;6331196;22;20025;-75
2021/10/02 12:57:03;;;;;;;2.75;2.55;;;;;;;9.18;58.56;101852.56;6332089;22;20030;-77
2021/10/02 13:00:15;;;;;;;2.72;2.63;;;;;;;9.14;59.03;101849.13;6313271;22;20080;-76
2021/10/02 13:03:01;;;;;;;3.15;2.95;;;;;;;9.22;59.46;101852.50;6334528;22;20025;-77
2021/10/02 13:05:45;;;;;;;2.83;2.72;;;;;;;9.13;58.93;101846.56;6309523;22;20030;-75
2021/10/02 13:08:30;;;;;;;2.90;2.80;;;;;;;9.23;59.00;101843.75;6334076;22;20087;-73
2021/10/02 13:11:28;;;;;;;2.53;2.42;;;;;;;9.12;59.82;101829.22;6310161;22;20078;-75
2021/10/02 13:14:36;;;;;;;3.70;2.67;;;;;;;8.96;59.67;101839.03;6333973;22;20030;-76
2021/10/02 13:17:21;;;;;;;2.33;2.20;;;;;;;8.92;60.11;101837.34;6310275;22;20033;-74
2021/10/02 13:20:10;;;;;;;3.28;3.17;;;;;;;9.14;59.72;101838.72;6334545;22;20370;-76
2021/10/02 13:22:55;;;;;;;2.60;2.33;;;;;;;8.86;58.96;101837.47;6336175;22;20081;-77
2021/10/02 13:26:00;;;;;;;3.20;2.97;;;;;;;8.82;60.01;101835.78;6335958;22;20036;-74
2021/10/02 13:28:49;;;;;;;2.47;2.38;;;;;;;8.84;60.16;101823.59;6336048;22;20109;-75
2021/10/02 13:31:34;;;;;;;2.58;2.40;;;;;;;8.97;60.03;101834.66;6312839;22;20519;-76
2021/10/02 13:34:18;;;;;;;2.58;2.38;;;;;;;8.85;60.64;101831.38;6336059;22;20064;-75
2021/10/02 13:37:04;;;;;;;5.70;3.15;;;;;;;8.83;60.16;101832.31;6335758;22;20025;-75
2021/10/02 13:39:51;;;;;;;3.33;3.05;;;;;;;8.94;59.47;101826.91;6335766;22;20057;-75
2021/10/02 13:42:35;;;;;;;2.42;2.33;;;;;;;8.96;59.28;101826.00;6312501;22;20026;-74
2021/10/02 13:45:24;;;;;;;4.72;4.25;;;;;;;9.04;59.08;101826.72;6313326;22;20076;-76
2021/10/02 13:48:10;;;;;;;3.00;2.90;;;;;;;9.04;59.29;101821.50;6311633;22;20042;-75
2021/10/02 13:50:56;;;;;;;5.72;3.50;;;;;;;8.89;60.23;101820.03;6335540;22;20500;-75
2021/10/02 13:53:40;;;;;;;3.92;3.20;;;;;;;8.83;60.92;101825.31;6312351;22;20033;-75
2021/10/02 13:56:35;;;;;;;3.78;3.40;;;;;;;8.79;60.76;101825.41;6335923;22;20366;-76
2021/10/02 13:59:19;;;;;;;3.10;2.97;;;;;;;8.79;59.80;101828.03;6335339;22;20045;-76
2021/10/02 14:02:07;;;;;;;2.65;2.55;;;;;;;8.85;60.80;101814.91;6335164;22;20088;-76
2021/10/02 14:04:51;;;;;;;4.10;3.85;;;;;;;8.89;60.14;101821.78;6336400;22;20516;-77
2021/10/02 14:07:48;;;;;;;2.55;2.45;;;;;;;8.78;61.03;101828.88;6342842;22;20025;-76
2021/10/02 14:10:34;;;;;;;3.22;3.03;;;;;;;8.76;61.11;101822.84;6298594;22;20029;-75
2021/10/02 14:13:30;;;;;;;8.60;3.67;;;;;;;8.64;61.02;101825.63;6315989;22;20042;-77
2021/10/02 14:16:17;;;;;;;3.45;3.20;;;;;;;8.63;60.55;101829.13;6336784;22;20068;-75
2021/10/02 14:19:02;;;;;;;16.02;3.38;;;;;;;8.65;60.92;101825.63;6337517;22;20500;-78
2021/10/02 14:21:55;;;;;;;3.22;3.03;;;;;;;8.58;61.27;101812.72;6337184;22;20405;-76
2021/10/02 14:24:40;;;;;;;2.58;2.45;;;;;;;8.59;61.48;101824.84;6314128;22;20416;-76
2021/10/02 14:27:24;;;;;;;3.67;3.47;;;;;;;8.60;62.16;101826.59;6336432;22;20072;-75
2021/10/02 14:30:09;;;;;;;3.90;2.63;;;;;;;8.60;62.13;101819.63;6312125;22;20107;-73
2021/10/02 14:32:53;;;;;;;3.03;2.92;;;;;;;8.50;61.85;101825.88;6311717;22;20068;-73
2021/10/02 14:35:38;;;;;;;2.92;2.83;;;;;;;8.47;62.44;101822.44;6335394;22;20346;-75
2021/10/02 14:38:22;;;;;;;3.38;3.08;;;;;;;8.43;63.00;101821.63;6334976;22;20083;-74
2021/10/02 14:41:14;;;;;;;2.55;2.45;;;;;;;8.38;63.34;101817.38;6334695;22;20370;-74
2021/10/02 14:43:59;;;;;;;3.80;3.60;;;;;;;8.43;61.77;101824.22;6291227;22;20033;-73
2021/10/02 14:46:44;;;;;;;5.05;4.68;;;;;;;8.42;61.80;101814.69;6311565;22;20075;-74
2021/10/02 14:49:28;;;;;;;3.53;3.35;;;;;;;8.47;60.89;101812.03;6311231;22;20029;-74
2021/10/02 14:52:13;;;;;;;3.67;3.42;;;;;;;8.48;62.03;101814.59;6334543;22;20782;-75
2021/10/02 14:54:57;;;;;;;4.22;3.47;;;;;;;8.38;62.37;101814.78;6334888;22;20037;-75
2021/10/02 14:57:44;;;;;;;3.00;2.90;;;;;;;8.35;61.71;101815.66;6289710;22;20044;-75
2021/10/02 15:00:28;;;;;;;7.05;4.32;;;;;;;8.34;62.04;101820.00;6334680;22;20032;-74
2021/10/02 15:03:13;;;;;;;4.18;3.88;;;;;;;8.38;60.96;101818.22;6311152;22;20172;-74
2021/10/02 15:05:57;;;;;;;3.45;3.25;;;;;;;8.37;61.25;101813.91;6334813;22;20071;-74
2021/10/02 15:08:41;;;;;;;4.30;4.07;;;;;;;8.34;61.73;101822.59;6311246;22;20083;-74
2021/10/02 15:11:25;;;;;;;3.28;3.13;;;;;;;8.29;61.58;101818.34;6311135;22;20079;-74
2021/10/02 15:14:10;;;;;;;2.38;2.28;;;;;;;8.32;61.57;101819.16;6311348;22;20029;-75
2021/10/02 15:16:55;;;;;;;8.10;2.38;;;;;;;8.34;61.52;101817.38;6311269;22;20029;-76
2021/10/02 15:19:40;;;;;;;4.65;3.60;;;;;;;8.27;62.22;101813.16;6311168;22;20076;-75
2021/10/02 15:22:24;;;;;;;9.63;4.30;;;;;;;8.32;61.64;101819.16;6334504;22;20029;-74
2021/10/02 15:25:10;;;;;;;2.78;2.58;;;;;;;8.30;62.12;101820.94;6310957;22;20029;-75